Mariano Mariani

Recruteur - Cagliari
4 Avr 2027
Dimanche
Processus

Personnalité

Adaptabilité (18) Ambition (2) Controverse (4) Loyauté (16) Pression (13) Professionnalisme (9) Sportivité (5) Tempérament (11)

Profil

Style d'entraînement Démocratique
Diplôme National A
Détermination 9
Gestion des joueurs 7
Motivation 6
Discipline 5
Satisfaction professionnelle
50%
Fatigue
0%
Rôle Recruteur
Salaire 77.2K p/s
Contrat 14.03.2029

Performance

Comportement Normal
Efficacité de l'entraînement
24%
Développement des joueurs
45%
Prévention des blessures
30%
Mise en place tactique
60%

Événements récents

A évalué un joueur maintenant
A participé à une réunion de recrutement maintenant
A participé à une réunion de recrutement maintenant
A évalué un joueur maintenant
A évalué un joueur maintenant
A évalué un joueur maintenant
A évalué un joueur maintenant
A évalué un joueur 7j

Suivi en cours

151
Joueur Club Statut Capacité Confiance Observé Dernière observation Dernier vote
Alexander Díaz Deportivo Riestra Actif 129 / 132 40% 3 03.04.2027 -
Felipe Peña Biafore Lanús Actif 113 / 135 40% 2 03.04.2027 -
Jerónimo Russo Newell's Old Boys Actif 106 / 99 40% 2 03.04.2027 -
Iván Morales Argentinos Juniors Actif 117 / 116 40% 2 03.04.2027 -
Jens Castrop Borussia Mönchengladbach Actif 118 / 135 40% 1 03.04.2027 -
Néiser Villarreal Cruzeiro Actif 107 / 93 40% 1 03.04.2027 -
Ejike Opara Vitoria Guimaraes Actif 110 / 114 40% 2 02.04.2027 -
Eliezer Mayenda Stade Rennais Actif 124 / 130 40% 1 02.04.2027 -
Jonás Luna Osasuna Actif 113 / 124 40% 3 01.04.2027 -
Milutin Osmajić Genoa Actif 111 / 125 40% 1 01.04.2027 -
Lucas Villalba Botafogo Actif 117 / 127 40% 2 30.03.2027 -
Gonzalo Plata Dinamo Moscow Actif 129 / 131 40% 1 30.03.2027 -
Stiven Shpendi Empoli Actif 120 / 121 40% 4 29.03.2027 -
Uchenna Ogundu FC Augsburg Actif 118 / 126 40% 1 29.03.2027 -
Ignacio Russo Tigre Actif 121 / 129 40% 5 27.03.2027 -
Luciano Juba Bahia Actif 123 / 140 40% 1 27.03.2027 -
Andrés Gómez Vasco da Gama Actif 144 / 123 40% 1 27.03.2027 -
Nilson Angulo Sunderland Actif 114 / 131 40% 1 27.03.2027 -
Santiago Montiel Independiente Actif 136 / 127 40% 2 25.03.2027 -
Luis Fernando Santa Clara Actif 114 / 98 40% 1 25.03.2027 -
Mads Bidstrup Olympique Lyonnais Actif 142 / 139 40% 1 25.03.2027 -
Umeh Emmanuel Zurich Actif 109 / 113 40% 2 24.03.2027 -
Danilo Botafogo Refusé 134 / 148 40% 1 24.03.2027 Plus d'infos
Saël Kumbedi VfL Wolfsburg Actif 121 / 132 40% 1 24.03.2027 -
Felipe Augusto Zenit Actif 143 / 127 40% 1 24.03.2027 -
Ajay Matthews Millwall Actif 113 / 104 40% 2 22.03.2027 -
Vinicius Tobias Shakhtar Actif 124 / 133 40% 2 21.03.2027 -
Thiago Balbuena Lanús Actif 89 / 108 40% 4 19.03.2027 -
Ísak Jóhannesson Köln Actif 142 / 132 40% 1 19.03.2027 -
Brenner Vasco da Gama Actif 113 / 115 40% 2 19.03.2027 -
Markus Jensen Nacional Actif 118 / 109 40% 1 19.03.2027 -
Santiago González Sporting Cristal Actif 133 / 106 40% 2 18.03.2027 -
Andrés Amaya Fortaleza CEIF Actif 107 / 126 40% 1 18.03.2027 -
Pavel Meleshin Sochi Actif 107 / 128 40% 1 15.03.2027 -
Juan Manuel Boselli Krasnodar Actif 124 / 124 40% 1 15.03.2027 -
Rhian Brewster Derby County Actif 112 / 127 40% 1 14.03.2027 -
Astemir Khashkulov Volga Actif 100 / 104 40% 1 14.03.2027 -
Pablo Suárez Rentistas Actif 103 / 85 40% 1 12.03.2027 -
Franco Calderón Sarmiento Actif 87 / 103 40% 1 10.03.2027 -
Roko Brajković Hajduk Split Actif 107 / 101 40% 2 09.03.2027 -
David Romero Parma Actif 132 / 134 40% 5 08.03.2027 -
Facundo Krüger Temperley Actif 97 / 116 40% 1 08.03.2027 -
Víctor Guzmán Sporting CP Actif 93 / 93 40% 1 07.03.2027 -
Ignacio Giacinti Patronato Actif 99 / 83 40% 1 07.03.2027 -
Abubakar Garba Nasarawa United Actif 100 / 89 40% 1 05.03.2027 -
Jhon Aponza Boca Juniors Actif 98 / 114 40% 1 04.03.2027 -
Exequiel Zeballos Boca Juniors Actif 129 / 142 40% 3 03.03.2027 -
Ramiro Ruiz Rodríguez Atlético Tucumán Actif 112 / 134 40% 3 03.03.2027 -
Borna Knezović Casarano Actif 114 / 96 40% 2 02.03.2027 -
Maksim Samorodov Akhmat Grozny Actif 120 / 127 40% 4 25.02.2027 -
Jan Hurtado Volos NPS Actif 124 / 126 40% 2 25.02.2027 -
Daniel Barrea Godoy Cruz Actif 118 / 116 40% 2 23.02.2027 -
Lassina Traoré Shakhtar Actif 120 / 114 40% 1 21.02.2027 -
Fabrizio Sartori Independiente Rivadavia Actif 109 / 103 40% 2 20.02.2027 -
Lucas Besozzi Lanús Actif 102 / 105 40% 2 20.02.2027 -
Eguinaldo Shakhtar Actif 124 / 134 40% 2 19.02.2027 -
Sandro Kulenović Torino Actif 123 / 130 40% 1 19.02.2027 -
Brayan Gil Baltika Actif 128 / 116 40% 3 18.02.2027 -
Matías Giménez Rojas Argentinos Juniors Actif 107 / 106 40% 1 18.02.2027 -
Jacques Siwe Rubin Actif 117 / 109 40% 1 17.02.2027 -
Tashreeq Matthews Mamelodi Sundowns Actif 104 / 103 40% 1 17.02.2027 -
Tamerlan Musaev CSKA Moscow Actif 113 / 114 40% 2 16.02.2027 -
Moses Cobnan Krasnodar Actif 110 / 119 40% 6 10.02.2027 -
Yoshan Valois Lanús Actif 124 / 136 40% 2 05.02.2027 -
Mykola Haiduchyk Polissia Actif 104 / 104 40% 1 05.02.2027 -
Matvii Ponomarenko Dynamo Kyiv Perdu 110 / 119 40% 1 26.01.2027 -
Yarden Shua Beitar Jerusalem Actif 112 / 144 40% 2 25.01.2027 -
Juan Bisanz Huracán Actif 132 / 113 40% 4 18.01.2027 -
Emil Ceïde Rosenborg Actif 118 / 121 40% 2 31.12.2026 -
Alan Lescano Argentinos Juniors Actif 125 / 126 40% 1 30.12.2026 -
Marlon Gomes Shakhtar Actif 137 / 135 40% 2 28.12.2026 -
Damián Puebla Orenburg Actif 115 / 128 40% 1 28.12.2026 -
Santiago Pierotti Lecce Actif 119 / 120 40% 1 27.12.2026 -
Rüstəm Əhmədzadə Sumgayit Actif 105 / 116 40% 1 26.12.2026 -
Filip Stojilković Pisa Actif 133 / 125 40% 2 24.12.2026 -
Yegor Golenkov Rostov Actif 127 / 113 40% 3 24.12.2026 -
Ali Youssef Apollon Perdu 134 / 121 40% 1 23.12.2026 -
Camillo Tavernelli Arezzo Actif 111 / 108 40% 2 21.12.2026 -
Victor Parada Spartak Moscow Actif 129 / 115 40% 1 21.12.2026 -
John Yeboah Venezia Actif 122 / 109 40% 1 21.12.2026 -
Kévin Denkey FC Cincinnati Actif 133 / 111 40% 4 18.12.2026 -
Håkon Evjen Bodo/Glimt Actif 130 / 127 40% 1 18.12.2026 -
Antoine Hainaut Venezia Actif 135 / 115 40% 2 16.12.2026 -
Nazar Voloshyn Dynamo Kyiv Actif 123 / 121 40% 1 16.12.2026 -
Indiana Vassilev Philadelphia Union Perdu 112 / 112 40% 2 12.12.2026 -
Assad Al Hamlawi Universitatea Craiova Actif 116 / 124 40% 3 10.12.2026 -
Wessam Abou Ali Columbus Crew Actif 123 / 120 40% 1 07.12.2026 -
Bojan Radulović Huddersfield Town Actif 119 / 120 40% 1 06.12.2026 -
Adrian Svanbäck BK Hacken Actif 119 / 117 40% 2 04.12.2026 -
Rocco Vata Watford Actif 119 / 127 40% 1 03.12.2026 -
Yorbe Vertessen Red Bull Salzburg Actif 132 / 122 40% 3 02.12.2026 -
Kauã Elias Shakhtar Actif 120 / 128 40% 1 28.11.2026 -
Sergey Pinyaev Lokomotiv Moscow Actif 120 / 121 40% 4 27.11.2026 -
Rodrigo Huescas FC Copenhagen Actif 141 / 136 40% 1 27.11.2026 -
Danil Glebov Dinamo Moscow Actif 135 / 119 40% 1 26.11.2026 -
Arthur Zagré Torino Actif 112 / 130 40% 1 23.11.2026 -
Dion Beljo Dinamo Zagreb Actif 136 / 130 40% 1 22.11.2026 -
Vinko Rozić Istra 1961 Actif 113 / 115 40% 1 22.11.2026 -
Matteo Rover Reggiana Actif 127 / 113 40% 1 20.11.2026 -
Fernando Costanza Krylya Sovetov Actif 132 / 119 40% 1 18.11.2026 -
Tommaso Berti Cesena Actif 131 / 127 40% 1 18.11.2026 -
Chico Banza Zamalek Actif 112 / 119 40% 1 14.11.2026 -
Olakunle Olusegun Rostov Actif 125 / 116 40% 1 13.11.2026 -
Tomás Chancalay Minnesota United FC Actif 135 / 122 40% 5 12.11.2026 -
Abu Kamara Portsmouth Actif 110 / 111 40% 3 12.11.2026 -
Tiago Palacios Estudiantes Actif 118 / 124 40% 1 12.11.2026 -
Leonardo Campana New England Revolution Actif 137 / 138 40% 3 11.11.2026 -
Matyáš Vojta Sparta Prague Actif 119 / 120 40% 1 09.11.2026 -
Tadeo Allende Inter Miami CF Actif 123 / 107 40% 2 08.11.2026 -
Jonathan Rowe Bologna Actif 140 / 134 40% 2 07.11.2026 -
Marezi Portsmouth Actif 122 / 113 40% 1 07.11.2026 -
Alex Luna Instituto Actif 145 / 122 40% 2 05.11.2026 -
Jeong Sang-Bin St. Louis CITY SC Actif 121 / 104 40% 1 05.11.2026 -
Frederik Ihler IF Elfsborg Actif 123 / 106 40% 1 05.11.2026 -
Jack McGlynn Houston Dynamo Actif 131 / 118 40% 1 05.11.2026 -
John Mercado Sparta Prague Actif 120 / 128 40% 1 29.10.2026 -
Kevin Zenón Boca Juniors Actif 132 / 138 40% 1 28.10.2026 -
Jens Petter Hauge Bodo/Glimt Actif 149 / 140 40% 1 26.10.2026 -
Talles Magno New York City Actif 125 / 131 40% 1 26.10.2026 -
Ilias Sebaoui Sint-Truiden Actif 126 / 132 40% 1 19.10.2026 -
Oleh Ocheretko Shakhtar Actif 138 / 127 40% 1 19.10.2026 -
Alessandro Bianco Modena Actif 126 / 120 40% 2 18.10.2026 -
Tobias Bech AGF Actif 116 / 131 40% 2 15.10.2026 -
Martín Ortega Newell's Old Boys Actif 129 / 120 40% 1 12.10.2026 -
Franco Fagúndez Estudiantes Actif 100 / 125 40% 2 08.10.2026 -
Juan-José Perea Zurich Actif 120 / 117 40% 1 07.10.2026 -
Luca Orellano Monterrey Actif 122 / 137 40% 3 06.10.2026 -
David Da Costa Portland Timbers Actif 127 / 120 40% 2 04.10.2026 -
Erik Lira Cruz Azul Actif 150 / 126 40% 1 02.10.2026 -
Patrik Wålemark Lech Actif 119 / 128 40% 1 01.10.2026 -
César Ibáñez Huracán Actif 125 / 112 40% 1 01.10.2026 -
Brayan León Mamelodi Sundowns Actif 112 / 131 40% 1 30.09.2026 -
Bryan González Guadalajara Actif 136 / 145 40% 1 30.09.2026 -
Brian Gutiérrez Guadalajara Actif 128 / 131 40% 1 30.09.2026 -
Nicolás Fonseca Leon Actif 125 / 129 40% 1 28.09.2026 -
Yousef Salech Cardiff City Actif 133 / 114 40% 1 27.09.2026 -
Ozziel Herrera Tigres Actif 124 / 126 40% 1 22.09.2026 -
Michy Fellaini KV Oostende Actif 130 / 132 40% 1 22.09.2026 -
Brandon Vázquez Austin FC Actif 102 / 104 40% 1 21.09.2026 -
Adrián Sánchez Belgrano Actif 117 / 120 40% 1 20.09.2026 -
Josh Sargent Toronto FC Actif 128 / 117 40% 1 19.09.2026 -
Jefry Zapata Once Caldas Actif 124 / 124 40% 1 18.09.2026 -
Taisei Miyashiro Seattle Sounders Actif 141 / 126 40% 2 17.09.2026 -
Cesar Corona Veracruz Actif 151 / 145 40% 2 16.09.2026 -
Juan Manuel Sanabria Real Salt Lake Actif 123 / 121 40% 1 16.09.2026 -
Lasse Berg Johnsen Sporting Kansas City Actif 142 / 119 40% 1 16.09.2026 -
Matija Frigan Parma Actif 125 / 120 40% 1 16.09.2026 -
Williams Alarcón Boca Juniors Actif 136 / 141 40% 1 14.09.2026 -
Adalberto Carrasquilla Pumas UNAM Actif 120 / 119 40% 1 14.09.2026 -
Andrés Herrera Columbus Crew Actif 129 / 115 40% 1 11.09.2026 -
Alan Velasco Boca Juniors Actif 138 / 113 40% 1 07.09.2026 -